Zografos, Greece
Current Conditions -  °F | °C
As of 9:20 AM on Sunday 26 Oct 2014 (Local Time) from LGTS Reporting Station
Overcast Overcast  
Wind Chill:   Ceiling: 4000
Heat Index:   Visibility: 6mi
Dew Point:   Wind: 17mph
Humidity: 71%   Direction: 330°NNW
Pressure: 30.12"   Gusts: NA
Location:  40.28°N, 23.25°E
Report Text: LGTS 260620Z 33015KT 9999 FEW015 BKN040 OVC060 09/04 Q1020 NOSIG
Loading
Personal Weather Stations






























Interactive Weather Map
Tropical Storm Tracking
New forecast layout! Learn more

10-Day Weather Forecast

Advertisements
Track Severe Weather on mobile